This is the latest recevied weather packets stored in our database for station/object lu6fg. If no packets are shown the sender has not sent any weather packets the latest 10 day(s).
| Time | Temp. | Humidity | Pressure | Rain* | Wind** | Luminosity | Snow |
|---|---|---|---|---|---|---|---|
| 1777652285 | 24.44° C | 66% | 1009.2 hPa | 0 mm | - | - | - |
| 1777652045 | 24.44° C | 67% | 1009.2 hPa | 0 mm | - | - | - |
| 1777651865 | 24.44° C | 67% | 1009.3 hPa | 0 mm | - | - | - |
| 1777651625 | 24.44° C | 68% | 1009.4 hPa | 0 mm | - | - | - |
| 1777650965 | 23.89° C | 68% | 1009.4 hPa | 0 mm | - | - | - |
| 1777650005 | 23.33° C | 69% | 1009.6 hPa | 0 mm | - | - | - |
| 1777649885 | 23.33° C | 69% | 1009.5 hPa | 0 mm | - | - | - |
| 1777649645 | 23.33° C | 69% | 1009.8 hPa | 0 mm | - | - | - |
| 1777649126 | 22.78° C | 71% | 1009.9 hPa | 0 mm | - | - | - |
| 1777649006 | 22.78° C | 71% | 1009.6 hPa | 0 mm | - | - | - |
| 1777648145 | 21.67° C | 72% | 1009.8 hPa | 0 mm | - | - | - |
| 1777647986 | 22.22° C | 71% | 1009.8 hPa | 0 mm | - | - | - |
| 1777647665 | 21.11° C | 75% | 1009.9 hPa | 0 mm | - | - | - |
| 1777646765 | 20° C | 78% | 1010.1 hPa | 0 mm | - | - | - |
| 1777646486 | 20° C | 78% | 1010.2 hPa | 0 mm | - | - | - |
| 1777646405 | 20° C | 78% | 1010.5 hPa | 0 mm | - | - | - |
| 1777646285 | 20° C | 78% | 1010.2 hPa | 0 mm | - | - | - |
| 1777646105 | 20° C | 78% | 1010.3 hPa | 0 mm | - | - | - |
| 1777645505 | 19.44° C | 78% | 1010.4 hPa | 0 mm | - | - | - |
| 1777645205 | 19.44° C | 78% | 1010.4 hPa | 0 mm | - | - | - |
| 1777645085 | 19.44° C | 78% | 1010.1 hPa | 0 mm | - | - | - |
| 1777644965 | 19.44° C | 78% | 1010.2 hPa | 0 mm | - | - | - |
| 1777644866 | 19.44° C | 78% | 1010.3 hPa | 0 mm | - | - | - |
| 1777644665 | 19.44° C | 78% | 1010.3 hPa | 0 mm | - | - | - |
| 1777644608 | 19.44° C | 78% | 1010.4 hPa | 0 mm | - | - | - |
* Rain latest hour (hover to see other rain measurements)
** Current wind speed in m/s (hover to see current wind gust speed)